TNCM METAR and TAF | Updated Today

TNCM METAR

Princess Juliana International Airport

Observation time: 9 min. ago

TNCM 292000Z 13016G27KT 3000 +TSRA BKN///CB 24/23 Q1012 TEMPO 3000 TSRA RMK CB OVHD

Need help? Read our tutorial on how to read METARs or read the parsed version below.

Princess Juliana International Airport (TNCM) METAR

  • Weather conditions on Thu, 29 Sep 2022 20:00:00 +0000 (9 min. ago):
  • Present conditions: Strong thunderstorms rain
  • Clouds: Broken sky
  • Visibility: 3000 meters
  • Wind: 130 degrees at 16 knots
  • Temperature: 24 celsius
  • Dew point: 23 celsius
  • Pressure: 1012 millibars
  • Remarks: CB OVHD


Useful to know...

TNCM TAF

Princess Juliana International Airport

TNCM 291600Z 2918/3018 10010KT 9999 SCT018 TEMPO 2922/3012 5000 SHRA FEW014CB BKN016
Observation time: 4:09 hr. ago
Need help? Read our tutorial on how to read TAFs or read the parsed version below.

Parsed version of TAF for Princess Juliana International Airport (TNCM)

  • From 29 September at 18:00 UTC, to day 30 of the month at 18:00 UTC
  • Clouds: Scattered at 549 meters
  • Visibility: Greater than 10 km
  • Wind: 100 degrees at 10
  • Expected to arise temporarily, from 29 September at 22:00 UTC, to day 30 of the month at 12:00 UTC
  • Clouds: A few at 427 meters, cumulonimbus; broken sky at 488 meters
  • Visibility: 5000 meters
  • Other: Showers of rain